Climatologie pour Saint-Brevin les Pins
Jour • Résumé pour février 11, 2017 Système :  Métrique    Anglais   Mixte
« - 1 jour
+ 1 jour »
Jour Semaine Mois Année Personnalisé
  Maximum : Minimum : Moyenne :
Température sous abri : 5.5 °C -2.0 °C 1.1 °C
Point de rosée : 2.4 °C -2.7 °C -0.2 °C
Humidité : 98 % 76 % 91 %
Vitesse du vent : 11.3 km/h 0.0 km/h 2.4 km/h
Rafale : 14.5 km/h - -
Direction :- - East
Pression : 1021.9 hPa 1017.2 hPa -
Précipitations : 0.0 mm    
Historical Graphs
 
 
Tableau de données pour février 11, 2017
Heure Tempé Pt rosée Pression Vent Vitesse Rafale Humidité Taux pluie (/hr) Soleil
00:05 -0.6 °C -1.5 °C 1020.9 hPa NE 1.6 km/h 3.2 km/h 93 % 0.0 mm 0 W/m2
00:10 -0.3 °C -1.2 °C 1020.9 hPa Calm   3.2 km/h 94 % 0.0 mm 0 W/m2
00:15 -0.6 °C -1.5 °C 1020.9 hPa Calm   1.6 km/h 93 % 0.0 mm 0 W/m2
00:20 -1.1 °C -2.0 °C 1020.9 hPa Calm   1.6 km/h 93 % 0.0 mm 0 W/m2
00:30 -1.4 °C -2.2 °C 1020.9 hPa Calm   3.2 km/h 94 % 0.0 mm 0 W/m2
00:40 -1.7 °C -2.5 °C 1021.2 hPa NE 1.6 km/h 3.2 km/h 94 % 0.0 mm 0 W/m2
00:45 -1.6 °C -2.3 °C 1021.2 hPa Calm   3.2 km/h 95 % 0.0 mm 0 W/m2
00:50 -1.3 °C -2.0 °C 1021.2 hPa Calm   3.2 km/h 95 % 0.0 mm 0 W/m2
01:00 -1.3 °C -2.0 °C 1021.2 hPa Calm   3.2 km/h 95 % 0.0 mm 0 W/m2
01:10 -1.3 °C -2.0 °C 1021.2 hPa Calm   4.8 km/h 95 % 0.0 mm 0 W/m2
01:20 -1.6 °C -2.3 °C 1021.2 hPa North 4.8 km/h 6.4 km/h 95 % 0.0 mm 0 W/m2
01:25 -1.4 °C -2.1 °C 1021.2 hPa Calm   8.0 km/h 95 % 0.0 mm 0 W/m2
01:30 -1.2 °C -1.7 °C 1021.2 hPa Calm   8.0 km/h 96 % 0.0 mm 0 W/m2
01:35 -1.2 °C -1.9 °C 1021.2 hPa Calm   4.8 km/h 95 % 0.0 mm 0 W/m2
01:40 -1.3 °C -2.0 °C 1021.2 hPa Calm   3.2 km/h 95 % 0.0 mm 0 W/m2
01:45 -1.3 °C -2.0 °C 1020.9 hPa Calm   3.2 km/h 95 % 0.0 mm 0 W/m2
01:50 -1.3 °C -2.0 °C 1020.9 hPa North 1.6 km/h 3.2 km/h 95 % 0.0 mm 0 W/m2
01:55 -1.7 °C -2.4 °C 1021.2 hPa Calm   3.2 km/h 95 % 0.0 mm 0 W/m2
02:00 -1.6 °C -2.3 °C 1021.2 hPa North 1.6 km/h 4.8 km/h 95 % 0.0 mm 0 W/m2
02:10 -1.3 °C -1.8 °C 1020.9 hPa NNE 4.8 km/h 6.4 km/h 96 % 0.0 mm 0 W/m2
02:15 -1.0 °C -1.6 °C 1020.9 hPa NNE 1.6 km/h 4.8 km/h 96 % 0.0 mm 0 W/m2
02:25 -1.2 °C -1.9 °C 1021.2 hPa Calm   4.8 km/h 95 % 0.0 mm 0 W/m2
02:30 -1.6 °C -2.3 °C 1021.2 hPa Calm   6.4 km/h 95 % 0.0 mm 0 W/m2
02:40 -1.4 °C -1.9 °C 1021.2 hPa Calm   4.8 km/h 96 % 0.0 mm 0 W/m2
02:45 -1.3 °C -1.9 °C 1021.2 hPa NNE 1.6 km/h 4.8 km/h 96 % 0.0 mm 0 W/m2
02:55 -1.2 °C -1.8 °C 1020.9 hPa Calm   4.8 km/h 96 % 0.0 mm 0 W/m2
03:05 -1.4 °C -2.1 °C 1021.2 hPa Calm     95 % 0.0 mm 0 W/m2
03:10 -1.8 °C -2.5 °C 1021.2 hPa Calm     95 % 0.0 mm 0 W/m2
03:20 -2.0 °C -2.7 °C 1021.2 hPa NNE 1.6 km/h 6.4 km/h 95 % 0.0 mm 0 W/m2
03:25 -1.8 °C -2.4 °C 1021.2 hPa North 3.2 km/h 8.0 km/h 96 % 0.0 mm 0 W/m2
03:30 -1.6 °C -2.1 °C 1021.2 hPa NNE 3.2 km/h 9.7 km/h 96 % 0.0 mm 0 W/m2
03:40 -1.4 °C -2.0 °C 1021.2 hPa North 3.2 km/h 8.0 km/h 96 % 0.0 mm 0 W/m2
03:45 -1.5 °C -2.1 °C 1020.9 hPa North 3.2 km/h 4.8 km/h 96 % 0.0 mm 0 W/m2
03:55 -1.5 °C -2.1 °C 1020.9 hPa Calm   4.8 km/h 96 % 0.0 mm 0 W/m2
04:00 -1.5 °C -2.1 °C 1020.9 hPa Calm   1.6 km/h 96 % 0.0 mm 0 W/m2
04:05 -1.8 °C -2.4 °C 1020.9 hPa NNE 3.2 km/h 4.8 km/h 96 % 0.0 mm 0 W/m2
04:20 -1.6 °C -2.2 °C 1020.9 hPa NE 1.6 km/h 6.4 km/h 96 % 0.0 mm 0 W/m2
04:25 -1.4 °C -2.0 °C 1020.9 hPa Calm   8.0 km/h 96 % 0.0 mm 0 W/m2
04:35 -1.3 °C -1.7 °C 1020.9 hPa Calm   6.4 km/h 97 % 0.0 mm 0 W/m2
04:40 -1.4 °C -2.0 °C 1020.9 hPa Calm   4.8 km/h 96 % 0.0 mm 0 W/m2
04:45 -1.5 °C -2.1 °C 1020.9 hPa Calm   3.2 km/h 96 % 0.0 mm 0 W/m2
04:55 -1.5 °C -2.1 °C 1020.9 hPa Calm   3.2 km/h 96 % 0.0 mm 0 W/m2
05:00 -1.5 °C -2.1 °C 1020.9 hPa Calm   3.2 km/h 96 % 0.0 mm 0 W/m2
05:10 -1.8 °C -2.4 °C 1020.9 hPa NNE 3.2 km/h 4.8 km/h 96 % 0.0 mm 0 W/m2
05:15 -1.9 °C -2.5 °C 1020.9 hPa NNE 3.2 km/h 4.8 km/h 96 % 0.0 mm 0 W/m2
05:25 -1.5 °C -1.9 °C 1020.9 hPa NNE 4.8 km/h 8.0 km/h 97 % 0.0 mm 0 W/m2
05:30 -1.4 °C -1.9 °C 1020.9 hPa NNE 1.6 km/h 8.0 km/h 97 % 0.0 mm 0 W/m2
05:40 -1.4 °C -1.9 °C 1020.9 hPa NNE 4.8 km/h 4.8 km/h 97 % 0.0 mm 0 W/m2
05:45 -1.6 °C -2.0 °C 1020.9 hPa Calm   4.8 km/h 97 % 0.0 mm 0 W/m2
05:55 -1.6 °C -2.0 °C 1020.9 hPa NNE 3.2 km/h 6.4 km/h 97 % 0.0 mm 0 W/m2
06:05 -1.4 °C -1.9 °C 1020.9 hPa NNE 4.8 km/h 8.0 km/h 97 % 0.0 mm 0 W/m2
06:10 -1.5 °C -1.9 °C 1020.9 hPa North 4.8 km/h 9.7 km/h 97 % 0.0 mm 0 W/m2
06:20 -1.2 °C -1.6 °C 1021.2 hPa NE 3.2 km/h 9.7 km/h 97 % 0.0 mm 0 W/m2
06:25 -1.0 °C -1.4 °C 1021.2 hPa NNE 3.2 km/h 9.7 km/h 97 % 0.0 mm 0 W/m2
06:30 -1.0 °C -1.4 °C 1020.9 hPa NE 8.0 km/h 8.0 km/h 97 % 0.0 mm 0 W/m2
06:35 -1.1 °C -1.5 °C 1021.2 hPa NNE 8.0 km/h 9.7 km/h 97 % 0.0 mm 0 W/m2
06:40 -0.9 °C -1.4 °C 1021.2 hPa NE 4.8 km/h 9.7 km/h 97 % 0.0 mm 0 W/m2
06:45 -0.9 °C -1.4 °C 1021.2 hPa Calm   9.7 km/h 97 % 0.0 mm 0 W/m2
06:55 -0.8 °C -1.2 °C 1021.2 hPa NE 4.8 km/h 8.0 km/h 97 % 0.0 mm 0 W/m2
07:00 -0.9 °C -1.4 °C 1021.2 hPa Calm   8.0 km/h 97 % 0.0 mm 0 W/m2
07:05 -1.2 °C -1.6 °C 1021.2 hPa NE 1.6 km/h 6.4 km/h 97 % 0.0 mm 0 W/m2
07:10 -1.2 °C -1.6 °C 1021.2 hPa NE 1.6 km/h 6.4 km/h 97 % 0.0 mm 0 W/m2
07:15 -1.1 °C -1.5 °C 1021.2 hPa Calm   6.4 km/h 97 % 0.0 mm 0 W/m2
07:20 -1.2 °C -1.6 °C 1021.2 hPa NE 3.2 km/h 9.7 km/h 97 % 0.0 mm 0 W/m2
07:25 -1.1 °C -1.5 °C 1021.2 hPa ENE 3.2 km/h 9.7 km/h 97 % 0.0 mm 0 W/m2
07:30 -1.1 °C -1.5 °C 1021.2 hPa Calm   8.0 km/h 97 % 0.0 mm 0 W/m2
07:40 -1.4 °C -1.9 °C 1021.2 hPa Calm   4.8 km/h 97 % 0.0 mm 0 W/m2
07:50 -1.4 °C -1.8 °C 1021.2 hPa East 3.2 km/h 6.4 km/h 97 % 0.0 mm 0 W/m2
07:55 -1.3 °C -1.7 °C 1021.2 hPa NE 3.2 km/h 6.4 km/h 97 % 0.0 mm 0 W/m2
08:00 -1.4 °C -1.9 °C 1021.6 hPa Calm   6.4 km/h 97 % 0.0 mm 0 W/m2
08:10 -1.5 °C -1.9 °C 1021.6 hPa NE 3.2 km/h 6.4 km/h 97 % 0.0 mm 0 W/m2
08:15 -1.3 °C -1.7 °C 1021.6 hPa Calm   6.4 km/h 97 % 0.0 mm 0 W/m2
08:25 -1.4 °C -1.8 °C 1021.6 hPa NE 4.8 km/h 8.0 km/h 97 % 0.0 mm 5 W/m2
08:30 -1.4 °C -1.9 °C 1021.6 hPa North 1.6 km/h 8.0 km/h 97 % 0.0 mm 7 W/m2
08:40 -1.0 °C -1.4 °C 1021.6 hPa Calm   9.7 km/h 97 % 0.0 mm 11 W/m2
08:45 -0.9 °C -1.4 °C 1021.9 hPa NE 4.8 km/h 6.4 km/h 97 % 0.0 mm 16 W/m2
08:50 -0.9 °C -1.4 °C 1021.6 hPa Calm   6.4 km/h 97 % 0.0 mm 18 W/m2
08:55 -0.9 °C -1.4 °C 1021.6 hPa ENE 1.6 km/h 4.8 km/h 97 % 0.0 mm 19 W/m2
09:00 -0.9 °C -1.3 °C 1021.6 hPa Calm   4.8 km/h 97 % 0.0 mm 18 W/m2
09:10 -1.1 °C -1.5 °C 1021.9 hPa Calm   4.8 km/h 97 % 0.0 mm 21 W/m2
09:15 -1.1 °C -1.5 °C 1021.9 hPa ENE 3.2 km/h 4.8 km/h 97 % 0.0 mm 28 W/m2
09:25 -0.8 °C -1.2 °C 1021.9 hPa ENE 1.6 km/h 4.8 km/h 97 % 0.0 mm 42 W/m2
09:30 -0.8 °C -1.2 °C 1021.9 hPa ENE 1.6 km/h 4.8 km/h 97 % 0.0 mm 42 W/m2
09:40 -0.5 °C -0.9 °C 1021.9 hPa Calm   6.4 km/h 97 % 0.0 mm 54 W/m2
09:45 -0.2 °C -0.6 °C 1021.9 hPa Calm   6.4 km/h 97 % 0.0 mm 58 W/m2
09:55 0.1 °C -0.4 °C 1021.9 hPa Calm   3.2 km/h 97 % 0.0 mm 81 W/m2
10:00 0.2 °C -0.3 °C 1021.9 hPa NE 1.6 km/h 3.2 km/h 97 % 0.0 mm 93 W/m2
10:10 0.3 °C -0.1 °C 1021.6 hPa Calm   1.6 km/h 97 % 0.0 mm 105 W/m2
10:15 0.5 °C 0.1 °C 1021.6 hPa Calm   3.2 km/h 97 % 0.0 mm 113 W/m2
10:25 0.8 °C 0.6 °C 1021.6 hPa Calm   4.8 km/h 98 % 0.0 mm 137 W/m2
10:30 1.1 °C 0.6 °C 1021.6 hPa Calm   3.2 km/h 97 % 0.0 mm 137 W/m2
10:40 1.4 °C 1.0 °C 1021.6 hPa NE 1.6 km/h 6.4 km/h 97 % 0.0 mm 169 W/m2
10:45 1.6 °C 1.3 °C 1021.6 hPa NE 1.6 km/h 4.8 km/h 98 % 0.0 mm 185 W/m2
10:50 1.7 °C 1.3 °C 1021.6 hPa NE 3.2 km/h 4.8 km/h 97 % 0.0 mm 135 W/m2
11:05 1.9 °C 1.5 °C 1021.6 hPa Calm     97 % 0.0 mm 123 W/m2
11:10 2.2 °C 1.8 °C 1021.6 hPa Calm     97 % 0.0 mm 128 W/m2
11:15 2.1 °C 1.5 °C 1021.6 hPa Calm     96 % 0.0 mm 148 W/m2
11:25 2.7 °C 2.1 °C 1021.6 hPa NE 1.6 km/h 4.8 km/h 96 % 0.0 mm 195 W/m2
11:30 3.0 °C 2.4 °C 1021.6 hPa NE 1.6 km/h 9.7 km/h 96 % 0.0 mm 190 W/m2
11:40 2.8 °C 2.1 °C 1021.6 hPa ENE 3.2 km/h 9.7 km/h 95 % 0.0 mm 197 W/m2
11:45 2.9 °C 2.2 °C 1021.6 hPa NE 6.4 km/h 9.7 km/h 95 % 0.0 mm 192 W/m2
11:55 3.2 °C 2.3 °C 1021.6 hPa Calm   9.7 km/h 94 % 0.0 mm 186 W/m2
12:00 3.2 °C 2.0 °C 1021.6 hPa NE 3.2 km/h 8.0 km/h 92 % 0.0 mm 197 W/m2
12:10 3.3 °C 2.0 °C 1021.6 hPa NE 1.6 km/h 6.4 km/h 91 % 0.0 mm 183 W/m2
12:15 3.3 °C 1.8 °C 1021.6 hPa Calm   9.7 km/h 90 % 0.0 mm 169 W/m2
12:20 3.5 °C 2.0 °C 1021.6 hPa NNE 4.8 km/h 9.7 km/h 90 % 0.0 mm 172 W/m2
12:25 3.7 °C 2.4 °C 1021.6 hPa WNW 1.6 km/h 8.0 km/h 91 % 0.0 mm 162 W/m2
12:30 3.8 °C 2.4 °C 1021.6 hPa North 6.4 km/h 9.7 km/h 91 % 0.0 mm 151 W/m2
12:40 3.5 °C 2.0 °C 1021.2 hPa North 3.2 km/h 9.7 km/h 90 % 0.0 mm 155 W/m2
12:45 3.6 °C 2.1 °C 1021.2 hPa North 3.2 km/h 9.7 km/h 90 % 0.0 mm 151 W/m2
13:00 3.9 °C 2.3 °C 1021.2 hPa Calm   11.3 km/h 89 % 0.0 mm 163 W/m2
13:10 4.2 °C 2.4 °C 1021.2 hPa NNW 3.2 km/h 9.7 km/h 88 % 0.0 mm 146 W/m2
13:15 4.1 °C 1.9 °C 1021.2 hPa Calm   12.9 km/h 86 % 0.0 mm 148 W/m2
13:20 4.2 °C 2.2 °C 1020.9 hPa NNW 9.7 km/h 12.9 km/h 87 % 0.0 mm 156 W/m2
13:25 4.3 °C 2.4 °C 1020.9 hPa NNE 4.8 km/h 9.7 km/h 87 % 0.0 mm 160 W/m2
13:30 4.3 °C 2.0 °C 1020.9 hPa North 8.0 km/h 12.9 km/h 85 % 0.0 mm 155 W/m2
13:40 4.2 °C 1.9 °C 1020.9 hPa NNE 6.4 km/h 11.3 km/h 85 % 0.0 mm 199 W/m2
13:50 4.3 °C 1.5 °C 1020.5 hPa NNE 6.4 km/h 12.9 km/h 82 % 0.0 mm 204 W/m2
14:05 4.7 °C 2.1 °C 1020.2 hPa NE 3.2 km/h 9.7 km/h 83 % 0.0 mm 211 W/m2
14:15 4.6 °C 1.5 °C 1020.2 hPa NNW 8.0 km/h 8.0 km/h 80 % 0.0 mm 218 W/m2
14:25 5.0 °C 1.8 °C 1019.9 hPa NE 3.2 km/h 14.5 km/h 80 % 0.0 mm 225 W/m2
14:30 4.9 °C 1.6 °C 1019.9 hPa North 11.3 km/h 14.5 km/h 79 % 0.0 mm 216 W/m2
14:35 5.2 °C 2.2 °C 1019.9 hPa NW 3.2 km/h 12.9 km/h 81 % 0.0 mm 218 W/m2
14:40 5.2 °C 1.3 °C 1019.9 hPa NNW 6.4 km/h 12.9 km/h 76 % 0.0 mm 229 W/m2
14:45 5.3 °C 2.2 °C 1019.5 hPa North 6.4 km/h 12.9 km/h 80 % 0.0 mm 227 W/m2
14:55 5.3 °C 1.8 °C 1019.5 hPa NNE 1.6 km/h 12.9 km/h 78 % 0.0 mm 230 W/m2
15:00 5.1 °C 1.5 °C 1019.5 hPa NE 6.4 km/h 11.3 km/h 78 % 0.0 mm 234 W/m2
15:10 5.2 °C 1.9 °C 1019.2 hPa NNW 3.2 km/h 11.3 km/h 79 % 0.0 mm 214 W/m2
15:15 5.2 °C 1.9 °C 1019.2 hPa NW 4.8 km/h 9.7 km/h 79 % 0.0 mm 207 W/m2
15:20 5.2 °C 2.1 °C 1019.2 hPa NNW 8.0 km/h 11.3 km/h 80 % 0.0 mm 199 W/m2
15:35 5.4 °C 2.3 °C 1018.8 hPa NW 4.8 km/h 12.9 km/h 80 % 0.0 mm 204 W/m2
15:40 5.5 °C 2.0 °C 1018.8 hPa NNE 3.2 km/h 12.9 km/h 78 % 0.0 mm 190 W/m2
15:45 5.4 °C 2.1 °C 1018.8 hPa NW 6.4 km/h 11.3 km/h 79 % 0.0 mm 162 W/m2
15:55 5.2 °C 2.1 °C 1018.8 hPa NNW 3.2 km/h 11.3 km/h 80 % 0.0 mm 144 W/m2
16:00 5.3 °C 2.2 °C 1018.8 hPa NW 8.0 km/h 9.7 km/h 80 % 0.0 mm 134 W/m2
16:10 5.0 °C 1.7 °C 1018.8 hPa North 4.8 km/h 12.9 km/h 79 % 0.0 mm 141 W/m2
16:15 5.0 °C 1.7 °C 1018.5 hPa NNE 6.4 km/h 12.9 km/h 79 % 0.0 mm 141 W/m2
16:20 4.9 °C 1.6 °C 1018.5 hPa NW 4.8 km/h 14.5 km/h 79 % 0.0 mm 135 W/m2
16:25 5.0 °C 1.5 °C 1018.5 hPa NNE 11.3 km/h 14.5 km/h 78 % 0.0 mm 134 W/m2
16:30 4.9 °C 1.6 °C 1018.5 hPa Calm   12.9 km/h 79 % 0.0 mm 141 W/m2
16:40 4.7 °C 1.4 °C 1018.2 hPa NNE 3.2 km/h 14.5 km/h 79 % 0.0 mm 114 W/m2
16:50 4.8 °C 1.6 °C 1018.2 hPa NNW 8.0 km/h 14.5 km/h 80 % 0.0 mm 81 W/m2
16:55 4.8 °C 1.7 °C 1018.2 hPa NW 3.2 km/h 14.5 km/h 80 % 0.0 mm 148 W/m2
17:00 4.8 °C 1.7 °C 1018.2 hPa North 3.2 km/h 11.3 km/h 80 % 0.0 mm 83 W/m2
17:15 4.4 °C 1.3 °C 1018.2 hPa Calm   11.3 km/h 80 % 0.0 mm 69 W/m2
17:20 4.4 °C 1.2 °C 1018.2 hPa NNW 3.2 km/h 11.3 km/h 80 % 0.0 mm 63 W/m2
17:25 4.4 °C 1.2 °C 1018.2 hPa NE 6.4 km/h 9.7 km/h 80 % 0.0 mm 63 W/m2
17:30 4.4 °C 1.5 °C 1018.2 hPa NNW 3.2 km/h 9.7 km/h 81 % 0.0 mm 63 W/m2
17:35 4.4 °C 1.4 °C 1018.2 hPa NE 3.2 km/h 11.3 km/h 81 % 0.0 mm 67 W/m2
17:40 4.4 °C 1.5 °C 1018.2 hPa North 3.2 km/h 11.3 km/h 81 % 0.0 mm 88 W/m2
17:45 4.5 °C 1.3 °C 1018.2 hPa North 4.8 km/h 11.3 km/h 80 % 0.0 mm 51 W/m2
17:55 3.9 °C 1.0 °C 1017.8 hPa North 1.6 km/h 14.5 km/h 81 % 0.0 mm 21 W/m2
18:00 3.7 °C 0.9 °C 1018.2 hPa NNE 6.4 km/h 12.9 km/h 82 % 0.0 mm 19 W/m2
18:10 3.2 °C 0.8 °C 1018.2 hPa NNW 3.2 km/h 11.3 km/h 84 % 0.0 mm 9 W/m2
18:20 2.8 °C 0.5 °C 1018.2 hPa Calm   8.0 km/h 85 % 0.0 mm 5 W/m2
18:25 2.6 °C 0.4 °C 1018.2 hPa NNE 3.2 km/h 8.0 km/h 86 % 0.0 mm 0 W/m2
18:30 2.5 °C 0.4 °C 1018.2 hPa NE 8.0 km/h 8.0 km/h 86 % 0.0 mm 0 W/m2
18:40 2.3 °C 0.2 °C 1018.2 hPa Calm   8.0 km/h 86 % 0.0 mm 0 W/m2
18:45 2.0 °C -0.1 °C 1018.2 hPa NE 1.6 km/h 3.2 km/h 86 % 0.0 mm 0 W/m2
18:55 1.3 °C -0.4 °C 1018.2 hPa North 3.2 km/h 4.8 km/h 88 % 0.0 mm 0 W/m2
19:00 1.2 °C -0.4 °C 1018.2 hPa Calm   4.8 km/h 89 % 0.0 mm 0 W/m2
19:10 1.0 °C -0.5 °C 1018.2 hPa Calm   3.2 km/h 90 % 0.0 mm 0 W/m2
19:15 1.2 °C -0.1 °C 1018.2 hPa Calm   3.2 km/h 91 % 0.0 mm 0 W/m2
19:20 1.4 °C 0.1 °C 1018.2 hPa North 1.6 km/h 3.2 km/h 91 % 0.0 mm 0 W/m2
19:25 1.5 °C 0.2 °C 1018.2 hPa Calm   1.6 km/h 91 % 0.0 mm 0 W/m2
19:30 1.6 °C 0.2 °C 1018.2 hPa Calm   1.6 km/h 91 % 0.0 mm 0 W/m2
19:40 1.7 °C 0.4 °C 1018.2 hPa Calm     91 % 0.0 mm 0 W/m2
19:50 1.6 °C 0.1 °C 1018.2 hPa Calm   1.6 km/h 90 % 0.0 mm 0 W/m2
19:55 1.2 °C -0.2 °C 1018.2 hPa North 3.2 km/h 3.2 km/h 90 % 0.0 mm 0 W/m2
20:00 1.0 °C -0.3 °C 1018.2 hPa North 1.6 km/h 4.8 km/h 91 % 0.0 mm 0 W/m2
20:10 0.8 °C -0.4 °C 1018.2 hPa North 1.6 km/h 4.8 km/h 92 % 0.0 mm 0 W/m2
20:15 1.0 °C -0.2 °C 1017.8 hPa North 3.2 km/h 4.8 km/h 92 % 0.0 mm 0 W/m2
20:25 1.1 °C -0.1 °C 1018.2 hPa Calm   3.2 km/h 92 % 0.0 mm 0 W/m2
20:35 1.1 °C 0.0 °C 1017.8 hPa North 1.6 km/h 4.8 km/h 92 % 0.0 mm 0 W/m2
20:40 1.0 °C -0.2 °C 1018.2 hPa North 3.2 km/h 4.8 km/h 92 % 0.0 mm 0 W/m2
20:50 1.0 °C 0.0 °C 1017.8 hPa North 3.2 km/h 6.4 km/h 93 % 0.0 mm 0 W/m2
20:55 1.1 °C 0.1 °C 1017.8 hPa NNE 3.2 km/h 6.4 km/h 93 % 0.0 mm 0 W/m2
21:00 1.1 °C -0.1 °C 1017.8 hPa NNE 1.6 km/h 6.4 km/h 92 % 0.0 mm 0 W/m2
21:10 1.1 °C 0.0 °C 1017.8 hPa NNE 3.2 km/h 4.8 km/h 92 % 0.0 mm 0 W/m2
21:20 0.8 °C -0.2 °C 1017.8 hPa NNE 3.2 km/h 4.8 km/h 93 % 0.0 mm 0 W/m2
21:25 0.9 °C -0.1 °C 1017.8 hPa NNE 3.2 km/h 6.4 km/h 93 % 0.0 mm 0 W/m2
21:35 0.9 °C -0.1 °C 1017.8 hPa NE 1.6 km/h 8.0 km/h 93 % 0.0 mm 0 W/m2
21:40 1.2 °C 0.2 °C 1017.8 hPa NE 3.2 km/h 6.4 km/h 93 % 0.0 mm 0 W/m2
21:45 1.3 °C 0.3 °C 1017.8 hPa North 8.0 km/h 8.0 km/h 93 % 0.0 mm 0 W/m2
21:55 1.6 °C 0.5 °C 1017.8 hPa NE 1.6 km/h 8.0 km/h 93 % 0.0 mm 0 W/m2
22:00 1.6 °C 0.6 °C 1017.8 hPa ENE 3.2 km/h 8.0 km/h 93 % 0.0 mm 0 W/m2
22:10 1.9 °C 0.8 °C 1017.5 hPa Calm   8.0 km/h 92 % 0.0 mm 0 W/m2
22:15 2.0 °C 0.8 °C 1017.5 hPa Calm   8.0 km/h 92 % 0.0 mm 0 W/m2
22:20 2.1 °C 0.9 °C 1017.5 hPa Calm   4.8 km/h 92 % 0.0 mm 0 W/m2
22:25 2.1 °C 0.7 °C 1017.5 hPa NE 3.2 km/h 4.8 km/h 91 % 0.0 mm 0 W/m2
22:30 2.0 °C 0.7 °C 1017.5 hPa NE 1.6 km/h 6.4 km/h 91 % 0.0 mm 0 W/m2
22:40 2.0 °C 0.8 °C 1017.5 hPa ENE 1.6 km/h 6.4 km/h 92 % 0.0 mm 0 W/m2
22:45 1.9 °C 0.6 °C 1017.5 hPa Calm   6.4 km/h 91 % 0.0 mm 0 W/m2
22:50 1.8 °C 0.5 °C 1017.5 hPa Calm   6.4 km/h 91 % 0.0 mm 0 W/m2
22:55 1.7 °C 0.6 °C 1017.5 hPa Calm   4.8 km/h 92 % 0.0 mm 0 W/m2
23:00 1.7 °C 0.6 °C 1017.5 hPa ENE 4.8 km/h 4.8 km/h 92 % 0.0 mm 0 W/m2
23:10 1.4 °C 0.2 °C 1017.2 hPa NE 1.6 km/h 8.0 km/h 92 % 0.0 mm 0 W/m2
23:15 1.2 °C 0.1 °C 1017.2 hPa Calm   9.7 km/h 92 % 0.0 mm 0 W/m2
23:20 1.2 °C 0.1 °C 1017.2 hPa NE 3.2 km/h 9.7 km/h 92 % 0.0 mm 0 W/m2
23:30 1.2 °C 0.2 °C 1017.5 hPa Calm   6.4 km/h 93 % 0.0 mm 0 W/m2
23:40 1.2 °C 0.1 °C 1017.2 hPa ENE 1.6 km/h 3.2 km/h 92 % 0.0 mm 0 W/m2
23:45 1.2 °C 0.0 °C 1017.2 hPa Calm   4.8 km/h 92 % 0.0 mm 0 W/m2
23:55 0.8 °C -0.3 °C 1017.2 hPa NE 3.2 km/h 6.4 km/h 92 % 0.0 mm 0 W/m2
Avec l'autorisation de Weather Underground - 1.5 mb